EST,Max TemperatureF,Mean TemperatureF,Min TemperatureF,Max Dew PointF,MeanDew PointF,Min DewpointF,Max Humidity, Mean Humidity, Min Humidity, Max Sea Level PressureIn, Mean Sea Level PressureIn, Min Sea Level PressureIn, Max VisibilityMiles, Mean VisibilityMiles, Min VisibilityMiles, Max Wind SpeedMPH, Mean Wind SpeedMPH, Max Gust SpeedMPH,PrecipitationIn, CloudCover, Events, WindDirDegrees
2012-12-1,20,10,0,11,4,-4,95,76,56,30.71,30.64,30.53,10,10,10,14,3,18,T,3,,174
2012-12-2,46,33,20,43,29,9,100,79,57,30.53,30.20,29.80,10,5,1,18,11,25,0.37,8,Rain-Snow,182
2012-12-3,43,36,29,43,35,26,100,88,75,30.26,30.00,29.79,10,9,2,22,7,28,0.04,6,Rain,287
2012-12-4,44,35,25,43,33,23,100,91,82,30.30,30.08,29.84,10,7,2,18,8,24,T,6,,166
2012-12-5,50,39,28,47,34,17,93,71,49,29.94,29.78,29.69,10,9,4,26,11,32,0.22,7,Rain,263
2012-12-6,28,21,14,16,13,10,88,72,55,30.30,30.19,29.96,10,9,2,29,12,38,T,4,Snow,328
2012-12-7,31,22,13,25,18,10,88,76,63,30.27,30.13,30.02,10,10,10,13,4,16,0.00,2,,169
2012-12-8,35,28,21,32,27,20,92,81,70,30.06,29.92,29.75,10,6,1,6,2,7,0.08,6,Rain-Snow,48
2012-12-9,37,26,14,34,23,7,100,78,56,30.36,30.05,29.76,10,8,1,21,10,30,0.01,5,Rain,296
2012-12-10,30,22,14,28,19,9,96,85,73,30.32,29.79,29.45,10,4,0,16,5,21,0.50,8,Fog-Rain-Snow,81
2012-12-11,33,22,11,29,21,7,92,80,68,30.09,29.73,29.43,10,9,2,16,6,20,0.01,6,Rain-Snow,279
2012-12-12,22,14,6,16,10,2,92,85,77,30.33,30.24,30.05,10,10,6,8,4,10,0.00,4,,234
2012-12-13,27,16,5,21,14,3,96,86,75,30.42,30.33,30.17,10,9,5,9,3,12,0.00,4,,183
2012-12-14,34,27,20,29,24,13,88,81,74,30.16,29.97,29.85,10,8,2,25,9,32,T,8,Snow,236
2012-12-15,20,11,2,14,3,-2,86,74,61,30.38,30.28,30.05,10,10,2,24,12,31,T,3,Snow,328
2012-12-16,16,5,-6,4,0,-9,87,73,59,30.40,30.34,30.30,10,10,9,10,4,13,0.00,0,,334
2012-12-17,30,16,1,29,19,-2,92,85,78,30.31,30.19,30.09,10,6,1,8,4,12,0.09,7,Snow,87
2012-12-18,35,33,31,31,30,27,92,84,75,30.09,29.85,29.67,10,5,0,20,11,26,0.33,8,Fog-Snow,79
2012-12-19,34,31,28,31,29,24,92,89,85,30.06,29.76,29.64,10,3,0,17,10,24,0.61,8,Fog-Snow,37
2012-12-20,31,29,26,25,24,23,92,85,78,30.20,30.14,30.06,10,8,1,9,2,12,T,7,Snow,353
2012-12-21,38,32,26,34,27,22,92,85,78,30.10,29.69,29.19,10,8,1,30,11,44,0.19,8,Rain-Snow,98
2012-12-22,39,33,26,36,31,21,92,84,76,29.34,29.22,29.13,10,8,2,29,9,41,0.08,8,Rain-Snow,186
2012-12-23,26,17,7,19,10,2,81,71,61,29.70,29.51,29.35,10,9,2,17,10,26,T,6,Snow,259
2012-12-24,15,10,4,2,1,-1,87,70,53,29.98,29.86,29.70,10,10,10,16,8,24,0.00,2,,253
2012-12-25,17,9,1,9,5,-2,87,74,61,30.21,30.08,29.99,10,8,2,16,5,21,0.01,4,Snow,315
2012-12-26,19,13,6,10,8,4,91,77,62,30.36,30.29,30.21,10,6,1,15,7,21,T,6,Snow,332
2012-12-27,24,15,6,21,15,3,92,85,77,30.27,29.94,29.65,10,4,0,21,10,32,0.44,7,Fog-Snow,27
2012-12-28,24,21,17,19,17,13,92,82,71,29.83,29.71,29.62,10,7,0,24,14,31,0.01,8,Snow,332
2012-12-29,21,14,7,13,11,5,84,76,67,29.97,29.86,29.64,10,10,9,12,4,14,0.00,5,,304
2012-12-30,21,16,10,18,12,2,84,77,70,29.60,29.43,29.33,10,3,0,32,19,45,0.07,8,Fog-Snow,330
2012-12-31,18,12,6,8,3,-1,88,72,56,29.70,29.64,29.52,10,9,1,24,9,35,0.01,3,Snow,291